createdAt,value
2023-03-30T00:01:12.660Z,64.20
2023-03-30T00:09:23.040Z,64.40
2023-03-30T00:17:28.549Z,64.20
2023-03-30T00:25:36.740Z,63.50
2023-03-30T00:33:46.941Z,63.50
2023-03-30T00:41:56.181Z,63.60
2023-03-30T00:50:02.037Z,63.40
2023-03-30T00:58:12.795Z,63.30
2023-03-30T01:06:22.146Z,63.40
2023-03-30T01:14:30.557Z,65.40
2023-03-30T01:23:13.748Z,64.90
2023-03-30T01:31:44.277Z,64.00
2023-03-30T01:39:59.354Z,65.00
2023-03-30T01:48:11.389Z,65.20
2023-03-30T01:56:27.497Z,65.00
2023-03-30T02:04:39.066Z,65.90
2023-03-30T02:12:48.135Z,66.10
2023-03-30T02:20:53.655Z,66.00
2023-03-30T02:29:02.101Z,66.00
2023-03-30T02:37:38.325Z,65.70
2023-03-30T02:45:55.787Z,66.90
2023-03-30T02:54:09.731Z,66.50
2023-03-30T03:02:41.942Z,66.10
2023-03-30T03:10:59.584Z,66.70
2023-03-30T03:19:10.232Z,66.40
2023-03-30T03:27:17.449Z,66.10
2023-03-30T03:35:54.405Z,66.10
2023-03-30T03:44:01.539Z,65.90
2023-03-30T03:52:11.401Z,66.60
2023-03-30T04:00:29.606Z,66.10
2023-03-30T04:08:38.352Z,66.40
2023-03-30T04:16:58.228Z,67.20
2023-03-30T04:25:32.642Z,66.60
2023-03-30T04:34:05.122Z,67.00
2023-03-30T04:42:21.187Z,67.00
2023-03-30T04:50:51.060Z,69.50
2023-03-30T04:59:17.944Z,69.80
2023-03-30T05:07:46.794Z,67.90
2023-03-30T05:16:33.113Z,67.80
2023-03-30T05:24:53.919Z,66.30
2023-03-30T05:33:33.835Z,65.30
2023-03-30T05:41:57.907Z,64.90
2023-03-30T05:50:24.984Z,64.20
2023-03-30T05:58:40.696Z,62.70
2023-03-30T06:06:56.193Z,61.00
2023-03-30T06:15:03.364Z,59.90
2023-03-30T06:23:26.647Z,58.20
2023-03-30T06:31:35.991Z,56.80
2023-03-30T06:40:14.957Z,54.40
2023-03-30T06:48:25.795Z,53.90
2023-03-30T06:56:54.947Z,54.00
2023-03-30T07:05:01.895Z,52.70
2023-03-30T07:13:38.223Z,50.90
2023-03-30T07:21:43.886Z,50.70
2023-03-30T07:29:55.848Z,52.20
2023-03-30T07:38:03.905Z,49.40
2023-03-30T07:46:16.521Z,46.80
2023-03-30T07:54:25.814Z,50.50
2023-03-30T08:03:01.317Z,47.50
2023-03-30T08:11:11.434Z,46.40
2023-03-30T08:19:22.369Z,43.50
2023-03-30T08:27:28.287Z,43.60
2023-03-30T08:35:36.537Z,38.30
2023-03-30T08:43:50.279Z,37.30
2023-03-30T08:51:59.676Z,38.50
2023-03-30T09:00:18.186Z,38.00
2023-03-30T09:08:29.542Z,36.20
2023-03-30T09:16:41.865Z,37.10
2023-03-30T09:24:51.765Z,37.10
2023-03-30T09:33:03.751Z,37.30
2023-03-30T09:41:23.633Z,36.40
2023-03-30T09:49:33.810Z,35.80
2023-03-30T09:57:42.451Z,34.50
2023-03-30T10:05:48.196Z,33.60
2023-03-30T10:13:56.627Z,34.80
2023-03-30T10:22:04.623Z,32.30
2023-03-30T10:30:22.270Z,31.90
2023-03-30T10:38:28.307Z,26.40
2023-03-30T10:46:36.760Z,23.20
2023-03-30T10:54:47.162Z,21.10
2023-03-30T11:03:02.752Z,21.20
2023-03-30T11:11:10.648Z,21.00
2023-03-30T11:19:25.078Z,20.30
2023-03-30T11:27:34.617Z,20.00
2023-03-30T11:35:48.754Z,19.50
2023-03-30T11:43:56.324Z,18.90
2023-03-30T11:52:16.924Z,19.20
2023-03-30T12:00:34.976Z,19.50
2023-03-30T12:08:57.616Z,20.00
2023-03-30T12:17:08.516Z,19.60
2023-03-30T12:25:27.918Z,20.00
2023-03-30T12:33:38.684Z,19.40
2023-03-30T12:41:52.346Z,20.10
2023-03-30T12:50:21.595Z,23.10
2023-03-30T12:58:38.459Z,25.70
2023-03-30T13:06:54.102Z,27.70
2023-03-30T13:15:03.753Z,27.90
2023-03-30T13:23:34.310Z,29.20
2023-03-30T13:32:07.815Z,29.90
2023-03-30T13:40:30.859Z,30.90
2023-03-30T13:49:10.074Z,31.40
2023-03-30T13:57:24.075Z,33.10
2023-03-30T14:05:34.934Z,33.30
2023-03-30T14:13:43.151Z,34.20
2023-03-30T14:21:50.476Z,35.10
2023-03-30T14:29:59.001Z,36.30
2023-03-30T14:38:16.308Z,37.40
2023-03-30T14:46:26.947Z,37.70
2023-03-30T14:54:33.706Z,37.90
2023-03-30T15:02:43.088Z,38.20
2023-03-30T15:10:53.298Z,38.60
2023-03-30T15:19:05.991Z,38.70
2023-03-30T15:27:12.610Z,39.30
2023-03-30T15:35:26.237Z,39.50
2023-03-30T15:43:33.821Z,39.90
2023-03-30T15:51:45.506Z,40.20
2023-03-30T15:59:54.139Z,41.40
2023-03-30T16:08:02.516Z,41.30
2023-03-30T16:16:08.536Z,41.80
2023-03-30T16:24:17.969Z,42.00
2023-03-30T16:32:28.115Z,42.40
2023-03-30T16:40:43.102Z,42.70
2023-03-30T17:14:34.601Z,43.90
2023-03-30T17:22:40.328Z,43.50
2023-03-30T17:30:49.315Z,44.20
2023-03-30T17:38:59.840Z,44.10
2023-03-30T17:47:08.094Z,44.70
2023-03-30T17:55:13.671Z,44.70
2023-03-30T18:03:23.580Z,44.80
2023-03-30T18:11:29.198Z,44.90
2023-03-30T18:19:37.301Z,45.50
2023-03-30T18:27:43.008Z,46.00
2023-03-30T18:35:52.894Z,46.60
2023-03-30T18:44:03.057Z,46.60
2023-03-30T18:52:11.312Z,46.60
2023-03-30T19:00:22.561Z,46.30
2023-03-30T19:08:31.129Z,46.70
2023-03-30T19:16:36.643Z,47.10
2023-03-30T19:24:44.735Z,47.00
2023-03-30T19:32:51.345Z,47.00
2023-03-30T19:41:03.439Z,48.10
2023-03-30T19:49:10.792Z,49.10
2023-03-30T19:57:19.270Z,49.50
2023-03-30T20:05:27.462Z,50.20
2023-03-30T20:13:37.115Z,50.20
2023-03-30T20:21:42.583Z,50.50
2023-03-30T20:29:51.091Z,53.60
2023-03-30T20:37:56.701Z,53.50
2023-03-30T20:46:09.916Z,52.80
2023-03-30T20:54:15.968Z,53.30
2023-03-30T21:02:24.060Z,52.70
2023-03-30T21:10:29.549Z,52.70
2023-03-30T21:18:38.605Z,52.70
2023-03-30T21:26:44.071Z,53.50
2023-03-30T21:34:52.116Z,53.90
2023-03-30T21:42:57.537Z,54.60
2023-03-30T21:51:08.052Z,54.20
2023-03-30T21:59:13.736Z,54.40
2023-03-30T22:07:22.080Z,54.30
2023-03-30T22:15:27.538Z,54.30
2023-03-30T22:23:35.735Z,54.00
2023-03-30T22:31:41.478Z,53.80
2023-03-30T22:39:49.689Z,53.80
2023-03-30T22:47:55.597Z,54.10
2023-03-30T22:56:04.581Z,54.70
2023-03-30T23:04:10.250Z,54.30
2023-03-30T23:12:18.247Z,53.70
2023-03-30T23:20:23.691Z,53.70
2023-03-30T23:28:32.473Z,53.90
2023-03-30T23:36:38.053Z,55.90
2023-03-30T23:44:46.220Z,57.70
2023-03-30T23:52:51.821Z,58.70
